Time;durP1;ratioP1;P1;durP2;ratioP2;P2;SDS_P1;SDS_P2;PMS_P1;PMS_P2;Temp;Humidity;BMP_temperature;BMP_pressure;BME280_temperature;BME280_humidity;BME280_pressure;Samples;Min_cycle;Max_cycle;Signal;HPM_P1;HPM_P2
2023/09/08 00:07:24;;;;;;;17.70;12.10;;;;;;;14.40;73.54;99472.14;435071;1256;107995;-42
2023/09/08 00:17:31;;;;;;;17.10;13.00;;;;;;;14.30;73.49;99469.34;435396;1254;99308;-41
2023/09/08 00:37:45;;;;;;;22.50;12.40;;;;;;;13.52;73.60;99466.91;434837;1256;496126;-42
2023/09/08 00:47:51;;;;;;;29.90;13.60;;;;;;;13.37;73.85;99458.52;435321;1254;99243;-43
2023/09/08 00:57:58;;;;;;;18.10;11.60;;;;;;;13.34;74.35;99459.75;435313;1253;107808;-41
2023/09/08 01:08:05;;;;;;;18.40;13.50;;;;;;;13.43;74.67;99456.20;435321;1263;99240;-43
2023/09/08 01:18:12;;;;;;;23.10;13.60;;;;;;;13.31;74.75;99453.58;435366;1263;112047;-42
2023/09/08 01:28:23;;;;;;;19.30;12.40;;;;;;;13.23;74.91;99441.31;435194;1251;107463;-43
2023/09/08 01:48:35;;;;;;;30.40;12.90;;;;;;;13.27;75.46;99437.27;435271;1251;108491;-41
2023/09/08 01:58:42;;;;;;;23.20;13.20;;;;;;;13.13;75.27;99439.44;435275;1250;98605;-42
2023/09/08 02:08:50;;;;;;;13.50;10.50;;;;;;;12.90;75.15;99436.96;435294;1262;111964;-41
2023/09/08 02:29:03;;;;;;;19.60;13.80;;;;;;;12.69;75.74;99427.15;435456;1250;99138;-43
2023/09/08 02:49:17;;;;;;;22.60;15.50;;;;;;;13.38;77.04;99416.98;436276;1257;99272;-42
2023/09/08 02:59:24;;;;;;;16.60;11.70;;;;;;;13.67;77.00;99410.98;436421;1254;110877;-41
2023/09/08 03:09:31;;;;;;;16.70;12.70;;;;;;;13.52;76.25;99410.95;436309;1261;108175;-42
2023/09/08 03:19:37;;;;;;;21.50;12.80;;;;;;;13.08;75.81;99405.64;436366;1254;97971;-41
2023/09/08 03:29:44;;;;;;;18.60;11.50;;;;;;;12.68;75.63;99397.25;436122;1247;107754;-42
2023/09/08 03:39:51;;;;;;;21.30;11.40;;;;;;;12.52;75.88;99399.75;436244;1254;99249;-41
2023/09/08 03:49:58;;;;;;;24.40;12.90;;;;;;;12.53;76.10;99396.01;436265;1257;111969;-42
2023/09/08 04:00:06;;;;;;;26.20;13.50;;;;;;;12.44;76.27;99392.77;436245;1261;107594;-42
2023/09/08 04:10:12;;;;;;;;;;;;;;;12.27;76.08;99393.79;436357;1261;99209;-43
2023/09/08 04:20:18;;;;;;;33.20;11.70;;;;;;;12.06;75.99;99392.59;436257;1253;108277;-41
2023/09/08 04:30:25;;;;;;;34.70;14.50;;;;;;;12.00;76.20;99394.16;436274;1248;99211;-41
2023/09/08 04:40:32;;;;;;;34.60;17.10;;;;;;;11.96;76.43;99394.58;436195;1253;110998;-42
2023/09/08 04:50:39;;;;;;;26.40;14.30;;;;;;;12.16;77.03;99391.35;436329;1248;108748;-42
2023/09/08 05:00:48;;;;;;;33.00;15.40;;;;;;;12.51;77.24;99392.56;436269;1261;99246;-41
2023/09/08 05:10:55;;;;;;;48.20;19.10;;;;;;;12.79;77.25;99393.06;436363;1248;108441;-42
2023/09/08 05:21:02;;;;;;;55.60;18.80;;;;;;;13.67;77.81;99394.47;436329;1252;99208;-42
2023/09/08 05:31:09;;;;;;;75.00;19.90;;;;;;;15.16;77.41;99392.11;436256;1253;112580;-42
2023/09/08 05:41:16;;;;;;;83.50;19.10;;;;;;;16.85;76.83;99389.53;436151;1263;107965;-42
2023/09/08 05:51:23;;;;;;;68.10;17.80;;;;;;;18.33;75.81;99387.34;436290;1247;98048;-43
2023/09/08 06:01:31;;;;;;;78.50;19.20;;;;;;;19.67;75.15;99383.16;436214;1248;107641;-42
2023/09/08 06:11:36;;;;;;;;;;;;;;;20.93;74.13;99384.22;436361;1253;98591;-41
2023/09/08 06:21:43;;;;;;;22.20;13.70;;;;;;;21.78;72.43;99384.10;436379;1254;112098;-42
2023/09/08 06:31:51;;;;;;;17.30;11.90;;;;;;;22.53;70.92;99381.27;436183;1248;107870;-42
2023/09/08 06:52:02;;;;;;;17.90;13.20;;;;;;;24.00;67.79;99388.73;437074;1248;107415;-40
2023/09/08 07:02:09;;;;;;;21.70;12.90;;;;;;;24.61;66.18;99385.45;436150;1248;99230;-44
2023/09/08 07:12:17;;;;;;;15.20;11.20;;;;;;;25.05;64.70;99387.69;436113;1253;110839;-41
2023/09/08 07:22:22;;;;;;;;;;;;;;;25.06;63.01;99387.77;436124;1252;108736;-41
2023/09/08 07:32:29;;;;;;;17.90;10.50;;;;;;;24.94;62.11;99383.92;436337;1247;99260;-41
2023/09/08 07:52:42;;;;;;;14.60;10.80;;;;;;;24.25;60.48;99385.44;436371;1254;98460;-42
2023/09/08 08:02:48;;;;;;;20.30;8.80;;;;;;;24.62;60.82;99381.59;436252;1253;111915;-40
2023/09/08 08:12:54;;;;;;;;;;;;;;;25.08;60.37;99373.91;436293;1253;108920;-40
2023/09/08 08:33:06;;;;;;;;;;;;;;;26.01;57.97;99371.77;436217;1254;107151;-41
2023/09/08 08:43:12;;;;;;;12.20;6.50;;;;;;;25.92;55.71;99371.09;436427;1253;99301;-41
2023/09/08 08:53:21;;;;;;;8.30;7.40;;;;;;;26.08;54.68;99371.41;436311;1253;112263;-42
2023/09/08 09:03:27;;;;;;;11.80;7.00;;;;;;;26.01;54.85;99359.04;436188;1255;108429;-41
2023/09/08 09:13:33;;;;;;;7.30;6.00;;;;;;;26.44;53.91;99353.36;436324;1253;99409;-42
2023/09/08 09:33:46;;;;;;;8.70;6.20;;;;;;;26.56;51.15;99351.02;436276;1248;98820;-42
2023/09/08 09:43:53;;;;;;;8.40;6.00;;;;;;;26.84;50.40;99342.33;436338;1253;112038;-40
2023/09/08 09:54:04;;;;;;;10.70;6.20;;;;;;;27.00;49.26;99339.09;436231;1247;107525;-42
2023/09/08 10:04:10;;;;;;;10.80;6.40;;;;;;;26.89;48.33;99331.80;436325;1247;98010;-42
2023/09/08 10:24:28;;;;;;;7.80;6.00;;;;;;;26.94;47.55;99322.59;436324;1253;99156;-41
2023/09/08 10:34:37;;;;;;;7.10;5.30;;;;;;;26.91;47.60;99316.83;436445;1253;111091;-42
2023/09/08 10:54:50;;;;;;;7.00;5.40;;;;;;;27.23;47.08;99295.21;436228;1253;98690;-42
2023/09/08 11:04:58;;;;;;;6.30;5.20;;;;;;;27.32;46.61;99289.60;436213;1252;108178;-42
2023/09/08 11:15:05;;;;;;;7.40;5.60;;;;;;;27.55;46.27;99281.02;436365;1251;98326;-41
2023/09/08 11:25:14;;;;;;;6.40;5.20;;;;;;;27.54;45.76;99281.86;436360;1251;111041;-41
2023/09/08 12:15:46;;;;;;;20.80;6.50;;;;;;;27.40;44.26;99250.30;436347;1252;112641;-41
2023/09/08 12:25:57;;;;;;;11.30;5.30;;;;;;;27.29;44.02;99244.58;436368;1250;107928;-41
2023/09/08 12:36:11;;;;;;;7.60;5.80;;;;;;;27.17;43.61;99238.09;436011;1248;529073;-41
2023/09/08 12:46:19;;;;;;;5.80;5.10;;;;;;;27.00;43.32;99231.23;436278;1253;108186;-41
2023/09/08 12:56:27;;;;;;;7.70;5.70;;;;;;;27.02;43.55;99227.47;436421;1250;98022;-41
2023/09/08 13:06:34;;;;;;;8.90;6.80;;;;;;;26.98;43.67;99220.05;436430;1248;111951;-40
2023/09/08 13:16:41;;;;;;;9.90;6.80;;;;;;;26.87;43.76;99219.59;436335;1253;107707;-41
2023/09/08 13:36:55;;;;;;;12.70;6.40;;;;;;;26.84;44.40;99209.48;436341;1253;107524;-40
2023/09/08 13:47:02;;;;;;;8.40;6.00;;;;;;;26.75;43.37;99205.29;436312;1247;97986;-43
2023/09/08 13:57:10;;;;;;;17.10;7.00;;;;;;;26.59;43.38;99196.00;436359;1253;112185;-42
2023/09/08 14:07:20;;;;;;;8.60;6.40;;;;;;;26.65;43.95;99185.32;436138;1247;107524;-41
2023/09/08 14:17:27;;;;;;;10.20;6.00;;;;;;;26.65;43.92;99182.73;436497;1250;99231;-40
2023/09/08 14:27:36;;;;;;;10.50;5.90;;;;;;;26.59;43.45;99177.49;436290;1253;107451;-42
2023/09/08 14:37:42;;;;;;;6.80;5.70;;;;;;;26.54;43.28;99168.17;436331;1247;99213;-43
2023/09/08 14:47:49;;;;;;;12.30;6.50;;;;;;;26.47;43.54;99166.27;436365;1252;111884;-42
2023/09/08 14:57:55;;;;;;;11.70;5.40;;;;;;;26.45;44.13;99158.02;436376;1253;108661;-41
2023/09/08 15:08:03;;;;;;;10.50;6.30;;;;;;;26.29;43.97;99149.18;436488;1248;99902;-42
2023/09/08 15:18:10;;;;;;;10.10;6.20;;;;;;;26.25;44.64;99144.35;436439;1247;108800;-43
2023/09/08 15:38:21;;;;;;;13.90;5.90;;;;;;;25.99;44.76;99142.27;436429;1252;112581;-42
2023/09/08 15:48:28;;;;;;;8.70;6.10;;;;;;;25.85;45.38;99134.11;436284;1250;108129;-41
2023/09/08 15:58:36;;;;;;;9.60;6.30;;;;;;;25.69;45.37;99129.45;436401;1253;99940;-42
2023/09/08 16:08:40;;;;;;;9.40;6.00;;;;;;;25.50;45.60;99127.23;436343;1248;107634;-43
2023/09/08 16:18:48;;;;;;;8.90;6.20;;;;;;;25.28;45.63;99126.27;436458;1251;99240;-41
2023/09/08 16:28:54;;;;;;;7.40;5.80;;;;;;;25.06;45.84;99114.63;436278;1253;111878;-43
2023/09/08 16:38:58;;;;;;;8.20;6.60;;;;;;;24.80;46.39;99103.30;436347;1247;106713;-42
2023/09/08 16:59:11;;;;;;;13.30;9.20;;;;;;;24.06;47.84;99112.84;436274;1250;108245;-43
2023/09/08 17:09:15;;;;;;;13.90;11.30;;;;;;;23.35;49.17;99114.70;436266;1251;98489;-42
2023/09/08 17:19:22;;;;;;;16.30;11.80;;;;;;;22.69;50.37;99114.45;436569;1248;111497;-41
2023/09/08 17:39:36;;;;;;;16.80;10.70;;;;;;;21.40;53.22;99135.34;436419;1248;99096;-42
2023/09/08 17:49:43;;;;;;;15.50;8.90;;;;;;;20.90;54.27;99139.37;436186;1249;107444;-42
2023/09/08 17:59:49;;;;;;;12.30;8.80;;;;;;;20.54;55.36;99148.63;436286;1249;99234;-42
2023/09/08 18:09:56;;;;;;;20.30;10.40;;;;;;;20.24;56.37;99149.54;436259;1253;111082;-43
2023/09/08 18:20:03;;;;;;;25.80;11.90;;;;;;;19.92;57.32;99140.20;436462;1254;109278;-42
2023/09/08 18:30:10;;;;;;;15.50;11.40;;;;;;;19.61;58.08;99146.55;436363;1252;97968;-42
2023/09/08 18:40:17;;;;;;;16.80;10.90;;;;;;;19.35;58.74;99145.02;436361;1252;108704;-42
2023/09/08 18:50:24;;;;;;;18.90;11.00;;;;;;;19.17;59.49;99144.39;436488;1253;99342;-40
2023/09/08 19:10:38;;;;;;;23.50;13.50;;;;;;;18.72;61.09;99148.88;436348;1249;106260;-42
2023/09/08 19:20:45;;;;;;;31.10;15.10;;;;;;;18.50;62.02;99152.19;436513;1248;99231;-41
2023/09/08 19:30:52;;;;;;;57.80;23.80;;;;;;;18.31;62.59;99158.94;436351;1253;107753;-42
2023/09/08 19:51:08;;;;;;;35.90;17.80;;;;;;;17.74;63.80;99150.23;436441;1251;111529;-41
2023/09/08 20:01:16;;;;;;;18.10;13.50;;;;;;;17.58;64.39;99148.71;436199;1253;108695;-41
2023/09/08 20:11:24;;;;;;;17.40;13.10;;;;;;;17.55;64.96;99144.79;436341;1253;99252;-41
2023/09/08 20:21:31;;;;;;;21.30;13.30;;;;;;;17.62;65.46;99147.59;436379;1253;109394;-41
2023/09/08 20:31:38;;;;;;;22.50;13.90;;;;;;;17.66;65.72;99151.95;436345;1250;97988;-41
2023/09/08 20:41:47;;;;;;;21.90;15.70;;;;;;;17.53;66.03;99150.45;436339;1253;111660;-41
2023/09/08 20:51:54;;;;;;;20.90;15.30;;;;;;;17.39;66.37;99153.77;436171;1254;107987;-41
2023/09/08 21:02:01;;;;;;;25.70;15.90;;;;;;;17.36;66.75;99150.60;436322;1253;99253;-41
2023/09/08 21:12:09;;;;;;;33.60;18.00;;;;;;;17.28;67.04;99145.21;436310;1253;109462;-41
2023/09/08 21:22:16;;;;;;;33.10;21.00;;;;;;;17.11;67.58;99148.97;436371;1250;101511;-41
2023/09/08 21:42:28;;;;;;;33.00;20.70;;;;;;;16.76;68.46;99137.34;436200;1250;107918;-41
2023/09/08 21:52:34;;;;;;;29.60;19.80;;;;;;;16.65;68.94;99139.77;436270;1252;99250;-42
2023/09/08 22:02:44;;;;;;;29.30;20.30;;;;;;;16.53;69.61;99140.63;436284;1253;108152;-42
2023/09/08 22:12:52;;;;;;;25.40;17.30;;;;;;;16.43;69.76;99140.70;436319;1253;99314;-41
2023/09/08 22:22:59;;;;;;;22.60;17.00;;;;;;;16.44;70.18;99137.04;436328;1253;111619;-42
2023/09/08 22:33:06;;;;;;;23.40;17.80;;;;;;;16.55;70.36;99132.40;436289;1251;106936;-41
2023/09/08 22:43:14;;;;;;;26.40;17.90;;;;;;;16.62;70.58;99123.34;436214;1254;97939;-42
2023/09/08 22:53:21;;;;;;;30.90;17.40;;;;;;;16.69;70.79;99122.93;435955;1253;108551;-42
2023/09/08 23:03:28;;;;;;;28.20;19.80;;;;;;;16.56;70.76;99127.14;436339;1248;99218;-42
2023/09/08 23:13:35;;;;;;;20.40;15.80;;;;;;;16.49;70.90;99117.89;436302;1258;110893;-42
2023/09/08 23:23:43;;;;;;;26.30;17.60;;;;;;;16.35;70.91;99106.48;436211;1261;109182;-42
2023/09/08 23:33:50;;;;;;;25.40;17.70;;;;;;;16.33;71.39;99109.30;436438;1254;99239;-41
2023/09/08 23:43:56;;;;;;;25.40;19.70;;;;;;;16.26;71.73;99114.63;436381;1254;108345;-43
